sensor_id;sensor_type;location;lat;lon;timestamp;P1;durP1;ratioP1;P2;durP2;ratioP2
40489;SDS011;26196;52.302;10.572;2023-05-10T00:00:55;2.35;;;1.70;;
40489;SDS011;26196;52.302;10.572;2023-05-10T00:04:55;1.77;;;1.60;;
40489;SDS011;26196;52.302;10.572;2023-05-10T00:08:55;2.83;;;1.73;;
40489;SDS011;26196;52.302;10.572;2023-05-10T00:12:56;2.23;;;1.37;;
40489;SDS011;26196;52.302;10.572;2023-05-10T00:16:56;2.97;;;1.87;;
40489;SDS011;26196;52.302;10.572;2023-05-10T00:20:56;2.03;;;1.50;;
40489;SDS011;26196;52.302;10.572;2023-05-10T00:24:57;1.70;;;1.52;;
40489;SDS011;26196;52.302;10.572;2023-05-10T00:28:58;3.28;;;2.20;;
40489;SDS011;26196;52.302;10.572;2023-05-10T00:32:58;1.70;;;1.50;;
40489;SDS011;26196;52.302;10.572;2023-05-10T00:36:58;2.17;;;1.60;;
40489;SDS011;26196;52.302;10.572;2023-05-10T00:40:59;2.17;;;1.55;;
40489;SDS011;26196;52.302;10.572;2023-05-10T00:44:59;3.42;;;1.55;;
40489;SDS011;26196;52.302;10.572;2023-05-10T00:49:00;2.43;;;1.90;;
40489;SDS011;26196;52.302;10.572;2023-05-10T00:53:00;2.00;;;1.58;;
40489;SDS011;26196;52.302;10.572;2023-05-10T00:57:02;2.28;;;1.80;;
40489;SDS011;26196;52.302;10.572;2023-05-10T01:01:03;3.70;;;1.75;;
40489;SDS011;26196;52.302;10.572;2023-05-10T01:05:04;2.08;;;1.88;;
40489;SDS011;26196;52.302;10.572;2023-05-10T01:09:05;2.88;;;1.45;;
40489;SDS011;26196;52.302;10.572;2023-05-10T01:13:09;1.52;;;1.33;;
40489;SDS011;26196;52.302;10.572;2023-05-10T01:17:10;2.70;;;1.70;;
40489;SDS011;26196;52.302;10.572;2023-05-10T01:34:02;2.20;;;1.75;;
40489;SDS011;26196;52.302;10.572;2023-05-10T01:42:25;1.67;;;1.58;;
40489;SDS011;26196;52.302;10.572;2023-05-10T01:46:35;2.35;;;1.70;;
40489;SDS011;26196;52.302;10.572;2023-05-10T01:50:38;2.08;;;1.50;;
40489;SDS011;26196;52.302;10.572;2023-05-10T01:54:43;4.47;;;1.98;;
40489;SDS011;26196;52.302;10.572;2023-05-10T01:58:49;2.58;;;1.45;;
40489;SDS011;26196;52.302;10.572;2023-05-10T02:02:51;5.45;;;1.75;;
40489;SDS011;26196;52.302;10.572;2023-05-10T02:06:52;2.05;;;1.73;;
40489;SDS011;26196;52.302;10.572;2023-05-10T02:10:55;1.63;;;1.52;;
40489;SDS011;26196;52.302;10.572;2023-05-10T02:14:56;2.72;;;1.88;;
40489;SDS011;26196;52.302;10.572;2023-05-10T02:18:59;2.15;;;1.48;;
40489;SDS011;26196;52.302;10.572;2023-05-10T02:23:01;2.70;;;1.77;;
40489;SDS011;26196;52.302;10.572;2023-05-10T02:27:03;1.70;;;1.50;;
40489;SDS011;26196;52.302;10.572;2023-05-10T02:31:05;2.17;;;1.55;;
40489;SDS011;26196;52.302;10.572;2023-05-10T02:35:07;2.00;;;1.80;;
40489;SDS011;26196;52.302;10.572;2023-05-10T02:39:09;2.58;;;1.52;;
40489;SDS011;26196;52.302;10.572;2023-05-10T02:43:14;2.92;;;1.70;;
40489;SDS011;26196;52.302;10.572;2023-05-10T02:47:17;2.20;;;1.52;;
40489;SDS011;26196;52.302;10.572;2023-05-10T02:51:18;2.05;;;1.45;;
40489;SDS011;26196;52.302;10.572;2023-05-10T02:55:21;2.60;;;1.63;;
40489;SDS011;26196;52.302;10.572;2023-05-10T02:59:25;2.90;;;1.65;;
40489;SDS011;26196;52.302;10.572;2023-05-10T03:03:26;2.63;;;1.45;;
40489;SDS011;26196;52.302;10.572;2023-05-10T03:07:26;3.45;;;1.67;;
40489;SDS011;26196;52.302;10.572;2023-05-10T03:16:08;2.80;;;2.05;;
40489;SDS011;26196;52.302;10.572;2023-05-10T03:20:12;1.90;;;1.50;;
40489;SDS011;26196;52.302;10.572;2023-05-10T03:24:21;2.03;;;1.48;;
40489;SDS011;26196;52.302;10.572;2023-05-10T03:28:27;2.58;;;1.50;;
40489;SDS011;26196;52.302;10.572;2023-05-10T03:32:28;2.20;;;1.80;;
40489;SDS011;26196;52.302;10.572;2023-05-10T03:36:31;2.28;;;2.05;;
40489;SDS011;26196;52.302;10.572;2023-05-10T03:40:32;1.90;;;1.20;;
40489;SDS011;26196;52.302;10.572;2023-05-10T03:44:32;2.05;;;1.73;;
40489;SDS011;26196;52.302;10.572;2023-05-10T03:48:33;3.85;;;2.05;;
40489;SDS011;26196;52.302;10.572;2023-05-10T03:52:33;5.03;;;2.42;;
40489;SDS011;26196;52.302;10.572;2023-05-10T03:56:34;5.70;;;3.00;;
40489;SDS011;26196;52.302;10.572;2023-05-10T04:00:34;9.63;;;2.78;;
40489;SDS011;26196;52.302;10.572;2023-05-10T04:04:35;9.43;;;3.28;;
40489;SDS011;26196;52.302;10.572;2023-05-10T04:08:35;7.23;;;3.57;;
40489;SDS011;26196;52.302;10.572;2023-05-10T04:12:35;7.55;;;3.53;;
40489;SDS011;26196;52.302;10.572;2023-05-10T04:16:36;8.13;;;2.90;;
40489;SDS011;26196;52.302;10.572;2023-05-10T04:20:36;4.33;;;2.70;;
40489;SDS011;26196;52.302;10.572;2023-05-10T04:24:36;6.93;;;2.70;;
40489;SDS011;26196;52.302;10.572;2023-05-10T04:28:37;6.87;;;2.47;;
40489;SDS011;26196;52.302;10.572;2023-05-10T04:32:37;9.45;;;4.88;;
40489;SDS011;26196;52.302;10.572;2023-05-10T04:36:38;6.78;;;2.42;;
40489;SDS011;26196;52.302;10.572;2023-05-10T04:40:38;6.13;;;2.87;;
40489;SDS011;26196;52.302;10.572;2023-05-10T04:44:38;5.40;;;2.80;;
40489;SDS011;26196;52.302;10.572;2023-05-10T04:48:39;8.52;;;2.97;;
40489;SDS011;26196;52.302;10.572;2023-05-10T04:52:39;8.90;;;2.60;;
40489;SDS011;26196;52.302;10.572;2023-05-10T04:56:40;6.78;;;2.78;;
40489;SDS011;26196;52.302;10.572;2023-05-10T05:00:41;7.28;;;2.53;;
40489;SDS011;26196;52.302;10.572;2023-05-10T05:04:41;7.90;;;2.65;;
40489;SDS011;26196;52.302;10.572;2023-05-10T05:08:42;7.38;;;2.80;;
40489;SDS011;26196;52.302;10.572;2023-05-10T05:12:42;7.00;;;2.10;;
40489;SDS011;26196;52.302;10.572;2023-05-10T05:16:42;4.53;;;2.40;;
40489;SDS011;26196;52.302;10.572;2023-05-10T05:20:43;3.83;;;2.05;;
40489;SDS011;26196;52.302;10.572;2023-05-10T05:24:43;4.00;;;2.63;;
40489;SDS011;26196;52.302;10.572;2023-05-10T05:28:44;4.57;;;2.88;;
40489;SDS011;26196;52.302;10.572;2023-05-10T05:32:45;6.40;;;2.15;;
40489;SDS011;26196;52.302;10.572;2023-05-10T05:36:47;4.63;;;2.05;;
40489;SDS011;26196;52.302;10.572;2023-05-10T05:40:47;5.03;;;2.05;;
40489;SDS011;26196;52.302;10.572;2023-05-10T05:44:48;5.68;;;2.25;;
40489;SDS011;26196;52.302;10.572;2023-05-10T05:48:48;2.97;;;2.22;;
40489;SDS011;26196;52.302;10.572;2023-05-10T05:52:48;3.17;;;2.20;;
40489;SDS011;26196;52.302;10.572;2023-05-10T05:56:49;2.60;;;2.10;;
40489;SDS011;26196;52.302;10.572;2023-05-10T06:00:49;5.40;;;3.53;;
40489;SDS011;26196;52.302;10.572;2023-05-10T06:04:50;2.95;;;2.03;;
40489;SDS011;26196;52.302;10.572;2023-05-10T06:08:50;5.40;;;2.73;;
40489;SDS011;26196;52.302;10.572;2023-05-10T06:12:51;6.78;;;2.03;;
40489;SDS011;26196;52.302;10.572;2023-05-10T06:16:52;4.43;;;2.33;;
40489;SDS011;26196;52.302;10.572;2023-05-10T06:20:53;5.73;;;2.20;;
40489;SDS011;26196;52.302;10.572;2023-05-10T06:24:53;5.70;;;2.72;;
40489;SDS011;26196;52.302;10.572;2023-05-10T06:28:53;2.87;;;2.10;;
40489;SDS011;26196;52.302;10.572;2023-05-10T06:32:54;2.45;;;2.15;;
40489;SDS011;26196;52.302;10.572;2023-05-10T06:36:55;2.47;;;2.00;;
40489;SDS011;26196;52.302;10.572;2023-05-10T06:40:55;7.50;;;2.90;;
40489;SDS011;26196;52.302;10.572;2023-05-10T06:44:56;3.73;;;2.40;;
40489;SDS011;26196;52.302;10.572;2023-05-10T06:48:56;2.50;;;2.05;;
40489;SDS011;26196;52.302;10.572;2023-05-10T06:52:56;2.83;;;2.13;;
40489;SDS011;26196;52.302;10.572;2023-05-10T06:56:57;4.88;;;2.10;;
40489;SDS011;26196;52.302;10.572;2023-05-10T07:01:04;2.88;;;2.17;;
40489;SDS011;26196;52.302;10.572;2023-05-10T07:05:05;2.58;;;2.08;;
40489;SDS011;26196;52.302;10.572;2023-05-10T07:09:06;2.97;;;1.83;;
40489;SDS011;26196;52.302;10.572;2023-05-10T07:13:07;2.50;;;1.90;;
40489;SDS011;26196;52.302;10.572;2023-05-10T07:17:08;3.43;;;1.90;;
40489;SDS011;26196;52.302;10.572;2023-05-10T07:21:08;1.67;;;1.50;;
40489;SDS011;26196;52.302;10.572;2023-05-10T07:25:08;3.33;;;1.90;;
40489;SDS011;26196;52.302;10.572;2023-05-10T07:29:09;1.88;;;1.67;;
40489;SDS011;26196;52.302;10.572;2023-05-10T07:33:10;4.95;;;1.83;;
40489;SDS011;26196;52.302;10.572;2023-05-10T07:37:12;3.15;;;1.55;;
40489;SDS011;26196;52.302;10.572;2023-05-10T07:41:12;2.58;;;2.03;;
40489;SDS011;26196;52.302;10.572;2023-05-10T07:45:13;3.57;;;2.03;;
40489;SDS011;26196;52.302;10.572;2023-05-10T07:49:13;3.78;;;2.17;;
40489;SDS011;26196;52.302;10.572;2023-05-10T07:53:13;2.78;;;1.90;;
40489;SDS011;26196;52.302;10.572;2023-05-10T07:57:14;5.40;;;2.23;;
40489;SDS011;26196;52.302;10.572;2023-05-10T08:01:17;2.33;;;2.00;;
40489;SDS011;26196;52.302;10.572;2023-05-10T08:05:18;3.38;;;1.98;;
40489;SDS011;26196;52.302;10.572;2023-05-10T08:09:18;2.30;;;1.98;;
40489;SDS011;26196;52.302;10.572;2023-05-10T08:13:23;2.13;;;1.92;;
40489;SDS011;26196;52.302;10.572;2023-05-10T08:17:23;3.97;;;2.20;;
40489;SDS011;26196;52.302;10.572;2023-05-10T08:21:24;2.25;;;1.85;;
40489;SDS011;26196;52.302;10.572;2023-05-10T08:25:25;4.20;;;2.00;;
40489;SDS011;26196;52.302;10.572;2023-05-10T08:29:26;1.83;;;1.63;;
40489;SDS011;26196;52.302;10.572;2023-05-10T08:33:26;2.40;;;2.10;;
40489;SDS011;26196;52.302;10.572;2023-05-10T08:37:29;3.00;;;1.90;;
40489;SDS011;26196;52.302;10.572;2023-05-10T08:41:29;2.22;;;1.88;;
40489;SDS011;26196;52.302;10.572;2023-05-10T08:45:33;2.85;;;2.45;;
40489;SDS011;26196;52.302;10.572;2023-05-10T08:49:37;2.75;;;2.00;;
40489;SDS011;26196;52.302;10.572;2023-05-10T08:53:38;2.50;;;2.03;;
40489;SDS011;26196;52.302;10.572;2023-05-10T08:57:39;2.40;;;2.20;;
40489;SDS011;26196;52.302;10.572;2023-05-10T09:01:39;3.10;;;1.67;;
40489;SDS011;26196;52.302;10.572;2023-05-10T09:05:42;2.78;;;1.83;;
40489;SDS011;26196;52.302;10.572;2023-05-10T09:09:44;3.40;;;2.70;;
40489;SDS011;26196;52.302;10.572;2023-05-10T09:13:46;2.88;;;2.15;;
40489;SDS011;26196;52.302;10.572;2023-05-10T09:17:48;2.17;;;1.67;;
40489;SDS011;26196;52.302;10.572;2023-05-10T09:21:49;2.13;;;1.85;;
40489;SDS011;26196;52.302;10.572;2023-05-10T09:26:01;3.08;;;1.73;;
40489;SDS011;26196;52.302;10.572;2023-05-10T09:30:04;2.75;;;1.88;;
40489;SDS011;26196;52.302;10.572;2023-05-10T09:34:06;1.92;;;1.63;;
40489;SDS011;26196;52.302;10.572;2023-05-10T09:38:06;3.15;;;1.88;;
40489;SDS011;26196;52.302;10.572;2023-05-10T09:42:07;2.13;;;1.75;;
40489;SDS011;26196;52.302;10.572;2023-05-10T09:46:09;3.08;;;2.05;;
40489;SDS011;26196;52.302;10.572;2023-05-10T09:50:11;2.70;;;1.75;;
40489;SDS011;26196;52.302;10.572;2023-05-10T09:54:12;2.05;;;1.85;;
40489;SDS011;26196;52.302;10.572;2023-05-10T09:58:14;1.73;;;1.42;;
40489;SDS011;26196;52.302;10.572;2023-05-10T10:02:15;2.67;;;2.33;;
40489;SDS011;26196;52.302;10.572;2023-05-10T10:06:18;2.35;;;1.60;;
40489;SDS011;26196;52.302;10.572;2023-05-10T10:10:19;2.40;;;1.67;;
40489;SDS011;26196;52.302;10.572;2023-05-10T10:14:19;1.42;;;1.33;;
40489;SDS011;26196;52.302;10.572;2023-05-10T10:18:21;3.75;;;1.55;;
40489;SDS011;26196;52.302;10.572;2023-05-10T10:22:26;1.73;;;1.60;;
40489;SDS011;26196;52.302;10.572;2023-05-10T10:26:27;2.47;;;1.90;;
40489;SDS011;26196;52.302;10.572;2023-05-10T10:30:43;2.40;;;1.60;;
40489;SDS011;26196;52.302;10.572;2023-05-10T10:34:47;1.42;;;1.33;;
40489;SDS011;26196;52.302;10.572;2023-05-10T10:42:48;2.20;;;1.60;;
40489;SDS011;26196;52.302;10.572;2023-05-10T10:51:00;1.05;;;0.90;;
40489;SDS011;26196;52.302;10.572;2023-05-10T10:59:11;1.20;;;0.95;;
40489;SDS011;26196;52.302;10.572;2023-05-10T11:03:12;1.40;;;1.00;;
40489;SDS011;26196;52.302;10.572;2023-05-10T11:07:17;1.25;;;1.05;;
40489;SDS011;26196;52.302;10.572;2023-05-10T11:11:19;0.98;;;0.70;;
40489;SDS011;26196;52.302;10.572;2023-05-10T11:15:20;1.60;;;0.80;;
40489;SDS011;26196;52.302;10.572;2023-05-10T11:19:32;1.08;;;0.77;;
40489;SDS011;26196;52.302;10.572;2023-05-10T11:23:33;0.70;;;0.70;;
40489;SDS011;26196;52.302;10.572;2023-05-10T11:27:47;0.50;;;0.40;;
40489;SDS011;26196;52.302;10.572;2023-05-10T11:31:48;0.93;;;0.70;;
40489;SDS011;26196;52.302;10.572;2023-05-10T11:35:49;0.85;;;0.50;;
40489;SDS011;26196;52.302;10.572;2023-05-10T11:39:50;0.75;;;0.52;;
40489;SDS011;26196;52.302;10.572;2023-05-10T11:43:50;0.80;;;0.37;;
40489;SDS011;26196;52.302;10.572;2023-05-10T11:47:52;0.52;;;0.30;;
40489;SDS011;26196;52.302;10.572;2023-05-10T11:51:52;0.50;;;0.50;;
40489;SDS011;26196;52.302;10.572;2023-05-10T11:55:53;0.50;;;0.40;;
40489;SDS011;26196;52.302;10.572;2023-05-10T11:59:53;0.93;;;0.47;;
40489;SDS011;26196;52.302;10.572;2023-05-10T12:03:55;0.80;;;0.50;;
40489;SDS011;26196;52.302;10.572;2023-05-10T12:08:21;0.50;;;0.40;;
40489;SDS011;26196;52.302;10.572;2023-05-10T12:12:21;0.55;;;0.40;;
40489;SDS011;26196;52.302;10.572;2023-05-10T12:16:23;0.88;;;0.63;;
40489;SDS011;26196;52.302;10.572;2023-05-10T12:20:26;0.50;;;0.40;;
40489;SDS011;26196;52.302;10.572;2023-05-10T12:24:28;0.95;;;0.47;;
40489;SDS011;26196;52.302;10.572;2023-05-10T12:28:29;0.60;;;0.32;;
40489;SDS011;26196;52.302;10.572;2023-05-10T12:32:40;0.90;;;0.50;;
40489;SDS011;26196;52.302;10.572;2023-05-10T12:36:41;0.50;;;0.22;;
40489;SDS011;26196;52.302;10.572;2023-05-10T12:40:42;0.47;;;0.40;;
40489;SDS011;26196;52.302;10.572;2023-05-10T12:44:42;1.07;;;0.40;;
40489;SDS011;26196;52.302;10.572;2023-05-10T12:48:43;1.40;;;0.40;;
40489;SDS011;26196;52.302;10.572;2023-05-10T12:52:45;0.40;;;0.30;;
40489;SDS011;26196;52.302;10.572;2023-05-10T12:56:45;0.80;;;0.52;;
40489;SDS011;26196;52.302;10.572;2023-05-10T13:00:46;1.27;;;0.85;;
40489;SDS011;26196;52.302;10.572;2023-05-10T13:04:46;4.47;;;2.58;;
40489;SDS011;26196;52.302;10.572;2023-05-10T13:08:48;13.30;;;5.05;;
40489;SDS011;26196;52.302;10.572;2023-05-10T13:12:49;12.40;;;7.32;;
40489;SDS011;26196;52.302;10.572;2023-05-10T13:16:49;14.55;;;8.27;;
40489;SDS011;26196;52.302;10.572;2023-05-10T13:20:49;14.43;;;9.93;;
40489;SDS011;26196;52.302;10.572;2023-05-10T13:24:50;19.35;;;10.10;;
40489;SDS011;26196;52.302;10.572;2023-05-10T13:28:50;19.58;;;10.95;;
40489;SDS011;26196;52.302;10.572;2023-05-10T13:32:51;15.85;;;10.52;;
40489;SDS011;26196;52.302;10.572;2023-05-10T13:36:52;17.50;;;9.67;;
40489;SDS011;26196;52.302;10.572;2023-05-10T13:40:53;13.82;;;9.65;;
40489;SDS011;26196;52.302;10.572;2023-05-10T13:44:54;13.93;;;9.85;;
40489;SDS011;26196;52.302;10.572;2023-05-10T13:48:54;17.33;;;11.40;;
40489;SDS011;26196;52.302;10.572;2023-05-10T13:52:55;22.63;;;12.87;;
40489;SDS011;26196;52.302;10.572;2023-05-10T13:56:55;15.15;;;9.70;;
40489;SDS011;26196;52.302;10.572;2023-05-10T14:00:55;16.27;;;11.20;;
40489;SDS011;26196;52.302;10.572;2023-05-10T14:04:56;18.23;;;12.00;;
40489;SDS011;26196;52.302;10.572;2023-05-10T14:08:56;15.87;;;9.27;;
40489;SDS011;26196;52.302;10.572;2023-05-10T14:12:56;11.27;;;6.20;;
40489;SDS011;26196;52.302;10.572;2023-05-10T14:16:57;9.68;;;5.85;;
40489;SDS011;26196;52.302;10.572;2023-05-10T14:20:58;7.40;;;5.50;;
40489;SDS011;26196;52.302;10.572;2023-05-10T14:24:58;6.33;;;4.17;;
40489;SDS011;26196;52.302;10.572;2023-05-10T14:28:58;5.78;;;4.32;;
40489;SDS011;26196;52.302;10.572;2023-05-10T14:32:59;4.82;;;3.20;;
40489;SDS011;26196;52.302;10.572;2023-05-10T14:37:02;5.60;;;3.90;;
40489;SDS011;26196;52.302;10.572;2023-05-10T14:41:02;6.90;;;3.65;;
40489;SDS011;26196;52.302;10.572;2023-05-10T14:45:03;6.78;;;3.33;;
40489;SDS011;26196;52.302;10.572;2023-05-10T14:49:04;4.40;;;2.28;;
40489;SDS011;26196;52.302;10.572;2023-05-10T14:53:04;2.45;;;1.70;;
40489;SDS011;26196;52.302;10.572;2023-05-10T14:57:06;2.80;;;2.00;;
40489;SDS011;26196;52.302;10.572;2023-05-10T15:01:06;2.38;;;1.13;;
40489;SDS011;26196;52.302;10.572;2023-05-10T15:05:07;1.57;;;1.10;;
40489;SDS011;26196;52.302;10.572;2023-05-10T15:09:07;2.88;;;0.95;;
40489;SDS011;26196;52.302;10.572;2023-05-10T15:13:08;1.77;;;0.88;;
40489;SDS011;26196;52.302;10.572;2023-05-10T15:17:09;1.05;;;0.50;;
40489;SDS011;26196;52.302;10.572;2023-05-10T15:21:10;1.48;;;0.57;;
40489;SDS011;26196;52.302;10.572;2023-05-10T15:25:10;1.10;;;0.60;;
40489;SDS011;26196;52.302;10.572;2023-05-10T15:29:10;0.55;;;0.40;;
40489;SDS011;26196;52.302;10.572;2023-05-10T15:33:11;0.73;;;0.50;;
40489;SDS011;26196;52.302;10.572;2023-05-10T15:37:11;1.00;;;0.55;;
40489;SDS011;26196;52.302;10.572;2023-05-10T15:41:12;0.63;;;0.50;;
40489;SDS011;26196;52.302;10.572;2023-05-10T15:45:12;1.95;;;0.80;;
40489;SDS011;26196;52.302;10.572;2023-05-10T15:49:13;2.38;;;0.63;;
40489;SDS011;26196;52.302;10.572;2023-05-10T15:53:13;1.67;;;0.68;;
40489;SDS011;26196;52.302;10.572;2023-05-10T15:57:13;2.95;;;0.98;;
40489;SDS011;26196;52.302;10.572;2023-05-10T16:01:14;1.17;;;0.70;;
40489;SDS011;26196;52.302;10.572;2023-05-10T16:05:14;1.63;;;0.80;;
40489;SDS011;26196;52.302;10.572;2023-05-10T16:09:15;2.15;;;1.05;;
40489;SDS011;26196;52.302;10.572;2023-05-10T16:13:16;0.77;;;0.50;;
40489;SDS011;26196;52.302;10.572;2023-05-10T16:17:16;2.08;;;1.05;;
40489;SDS011;26196;52.302;10.572;2023-05-10T16:21:19;1.75;;;0.65;;
40489;SDS011;26196;52.302;10.572;2023-05-10T16:25:19;0.73;;;0.57;;
40489;SDS011;26196;52.302;10.572;2023-05-10T16:29:20;0.70;;;0.70;;
40489;SDS011;26196;52.302;10.572;2023-05-10T16:33:20;1.30;;;0.53;;
40489;SDS011;26196;52.302;10.572;2023-05-10T16:37:20;1.77;;;0.70;;
40489;SDS011;26196;52.302;10.572;2023-05-10T16:41:21;1.02;;;0.50;;
40489;SDS011;26196;52.302;10.572;2023-05-10T16:45:21;1.42;;;0.90;;
40489;SDS011;26196;52.302;10.572;2023-05-10T16:49:22;2.43;;;0.70;;
40489;SDS011;26196;52.302;10.572;2023-05-10T16:53:22;0.98;;;0.60;;
40489;SDS011;26196;52.302;10.572;2023-05-10T16:57:24;0.60;;;0.40;;
40489;SDS011;26196;52.302;10.572;2023-05-10T17:01:25;0.68;;;0.55;;
40489;SDS011;26196;52.302;10.572;2023-05-10T17:05:26;1.60;;;1.00;;
40489;SDS011;26196;52.302;10.572;2023-05-10T17:09:26;1.55;;;0.90;;
40489;SDS011;26196;52.302;10.572;2023-05-10T17:13:26;0.87;;;0.80;;
40489;SDS011;26196;52.302;10.572;2023-05-10T17:17:27;0.95;;;0.85;;
40489;SDS011;26196;52.302;10.572;2023-05-10T17:21:27;0.93;;;0.80;;
40489;SDS011;26196;52.302;10.572;2023-05-10T17:25:28;2.60;;;0.93;;
40489;SDS011;26196;52.302;10.572;2023-05-10T17:29:28;1.70;;;0.80;;
40489;SDS011;26196;52.302;10.572;2023-05-10T17:33:31;1.98;;;1.02;;
40489;SDS011;26196;52.302;10.572;2023-05-10T17:37:31;0.80;;;0.70;;
40489;SDS011;26196;52.302;10.572;2023-05-10T17:41:32;1.00;;;0.85;;
40489;SDS011;26196;52.302;10.572;2023-05-10T17:45:32;1.42;;;1.05;;
40489;SDS011;26196;52.302;10.572;2023-05-10T17:49:33;2.30;;;0.90;;
40489;SDS011;26196;52.302;10.572;2023-05-10T17:53:33;1.67;;;1.05;;
40489;SDS011;26196;52.302;10.572;2023-05-10T17:57:37;1.77;;;0.90;;
40489;SDS011;26196;52.302;10.572;2023-05-10T18:01:37;1.10;;;0.85;;
40489;SDS011;26196;52.302;10.572;2023-05-10T18:05:38;3.58;;;0.77;;
40489;SDS011;26196;52.302;10.572;2023-05-10T18:09:38;2.13;;;0.95;;
40489;SDS011;26196;52.302;10.572;2023-05-10T18:13:38;3.87;;;1.10;;
40489;SDS011;26196;52.302;10.572;2023-05-10T18:17:39;1.65;;;1.15;;
40489;SDS011;26196;52.302;10.572;2023-05-10T18:21:39;1.87;;;0.90;;
40489;SDS011;26196;52.302;10.572;2023-05-10T18:25:39;1.93;;;1.27;;
40489;SDS011;26196;52.302;10.572;2023-05-10T18:29:40;2.35;;;1.90;;
40489;SDS011;26196;52.302;10.572;2023-05-10T18:33:42;2.45;;;1.27;;
40489;SDS011;26196;52.302;10.572;2023-05-10T18:37:42;1.92;;;1.23;;
40489;SDS011;26196;52.302;10.572;2023-05-10T18:41:43;3.55;;;1.75;;
40489;SDS011;26196;52.302;10.572;2023-05-10T18:45:44;4.07;;;1.55;;
40489;SDS011;26196;52.302;10.572;2023-05-10T18:49:45;1.90;;;1.40;;
40489;SDS011;26196;52.302;10.572;2023-05-10T18:53:45;1.73;;;1.23;;
40489;SDS011;26196;52.302;10.572;2023-05-10T18:57:46;1.55;;;1.30;;
40489;SDS011;26196;52.302;10.572;2023-05-10T19:01:46;2.17;;;1.30;;
40489;SDS011;26196;52.302;10.572;2023-05-10T19:05:47;1.70;;;1.30;;
40489;SDS011;26196;52.302;10.572;2023-05-10T19:09:47;3.55;;;1.20;;
40489;SDS011;26196;52.302;10.572;2023-05-10T19:13:48;3.13;;;1.40;;
40489;SDS011;26196;52.302;10.572;2023-05-10T19:17:48;3.80;;;1.42;;
40489;SDS011;26196;52.302;10.572;2023-05-10T19:21:49;3.25;;;1.40;;
40489;SDS011;26196;52.302;10.572;2023-05-10T19:25:50;2.78;;;1.50;;
40489;SDS011;26196;52.302;10.572;2023-05-10T19:29:50;4.32;;;1.65;;
40489;SDS011;26196;52.302;10.572;2023-05-10T19:33:51;2.17;;;1.80;;
40489;SDS011;26196;52.302;10.572;2023-05-10T19:37:52;3.03;;;1.40;;
40489;SDS011;26196;52.302;10.572;2023-05-10T19:41:53;5.00;;;1.60;;
40489;SDS011;26196;52.302;10.572;2023-05-10T19:45:53;3.20;;;1.42;;
40489;SDS011;26196;52.302;10.572;2023-05-10T19:49:57;4.13;;;1.30;;
40489;SDS011;26196;52.302;10.572;2023-05-10T19:53:57;3.47;;;1.58;;
40489;SDS011;26196;52.302;10.572;2023-05-10T19:57:58;7.03;;;2.00;;
40489;SDS011;26196;52.302;10.572;2023-05-10T20:02:01;3.13;;;1.35;;
40489;SDS011;26196;52.302;10.572;2023-05-10T20:06:02;4.05;;;1.48;;
40489;SDS011;26196;52.302;10.572;2023-05-10T20:10:03;1.65;;;1.25;;
40489;SDS011;26196;52.302;10.572;2023-05-10T20:14:04;1.90;;;1.50;;
40489;SDS011;26196;52.302;10.572;2023-05-10T20:18:05;3.97;;;1.92;;
40489;SDS011;26196;52.302;10.572;2023-05-10T20:22:05;2.35;;;1.40;;
40489;SDS011;26196;52.302;10.572;2023-05-10T20:26:08;2.90;;;1.80;;
40489;SDS011;26196;52.302;10.572;2023-05-10T20:30:08;2.25;;;1.77;;
40489;SDS011;26196;52.302;10.572;2023-05-10T20:34:09;2.22;;;1.50;;
40489;SDS011;26196;52.302;10.572;2023-05-10T20:38:09;2.60;;;1.88;;
40489;SDS011;26196;52.302;10.572;2023-05-10T20:42:10;1.88;;;1.25;;
40489;SDS011;26196;52.302;10.572;2023-05-10T20:46:10;2.03;;;1.52;;
40489;SDS011;26196;52.302;10.572;2023-05-10T20:50:11;2.28;;;1.35;;
40489;SDS011;26196;52.302;10.572;2023-05-10T20:54:11;3.38;;;1.70;;
40489;SDS011;26196;52.302;10.572;2023-05-10T20:58:12;1.23;;;1.13;;
40489;SDS011;26196;52.302;10.572;2023-05-10T21:02:12;2.07;;;1.43;;
40489;SDS011;26196;52.302;10.572;2023-05-10T21:06:12;1.80;;;1.47;;
40489;SDS011;26196;52.302;10.572;2023-05-10T21:10:12;2.10;;;1.23;;
40489;SDS011;26196;52.302;10.572;2023-05-10T21:14:13;2.57;;;1.63;;
40489;SDS011;26196;52.302;10.572;2023-05-10T21:18:13;1.80;;;1.50;;
40489;SDS011;26196;52.302;10.572;2023-05-10T21:22:13;1.55;;;1.40;;
40489;SDS011;26196;52.302;10.572;2023-05-10T21:26:14;1.40;;;1.30;;
40489;SDS011;26196;52.302;10.572;2023-05-10T21:30:14;1.58;;;1.25;;
40489;SDS011;26196;52.302;10.572;2023-05-10T21:34:15;2.58;;;1.90;;
40489;SDS011;26196;52.302;10.572;2023-05-10T21:38:16;1.67;;;1.42;;
40489;SDS011;26196;52.302;10.572;2023-05-10T21:42:17;2.83;;;1.30;;
40489;SDS011;26196;52.302;10.572;2023-05-10T21:46:18;1.70;;;1.52;;
40489;SDS011;26196;52.302;10.572;2023-05-10T21:50:18;1.80;;;1.63;;
40489;SDS011;26196;52.302;10.572;2023-05-10T21:54:18;2.47;;;1.57;;
40489;SDS011;26196;52.302;10.572;2023-05-10T21:58:19;2.20;;;1.90;;
40489;SDS011;26196;52.302;10.572;2023-05-10T22:02:19;2.30;;;1.83;;
40489;SDS011;26196;52.302;10.572;2023-05-10T22:06:19;1.83;;;1.63;;
40489;SDS011;26196;52.302;10.572;2023-05-10T22:10:20;2.43;;;1.40;;
40489;SDS011;26196;52.302;10.572;2023-05-10T22:14:20;3.28;;;1.92;;
40489;SDS011;26196;52.302;10.572;2023-05-10T22:18:21;1.85;;;1.40;;
40489;SDS011;26196;52.302;10.572;2023-05-10T22:22:22;2.35;;;1.90;;
40489;SDS011;26196;52.302;10.572;2023-05-10T22:26:22;1.42;;;1.25;;
40489;SDS011;26196;52.302;10.572;2023-05-10T22:30:22;2.10;;;1.90;;
40489;SDS011;26196;52.302;10.572;2023-05-10T22:34:23;3.03;;;2.00;;
40489;SDS011;26196;52.302;10.572;2023-05-10T22:38:23;1.73;;;1.50;;
40489;SDS011;26196;52.302;10.572;2023-05-10T22:42:24;1.80;;;1.63;;
40489;SDS011;26196;52.302;10.572;2023-05-10T22:46:24;1.50;;;1.40;;
40489;SDS011;26196;52.302;10.572;2023-05-10T22:50:24;1.83;;;1.67;;
40489;SDS011;26196;52.302;10.572;2023-05-10T22:54:25;2.50;;;2.05;;
40489;SDS011;26196;52.302;10.572;2023-05-10T22:58:26;1.67;;;1.58;;
40489;SDS011;26196;52.302;10.572;2023-05-10T23:02:26;1.88;;;1.70;;
40489;SDS011;26196;52.302;10.572;2023-05-10T23:06:27;1.73;;;1.42;;
40489;SDS011;26196;52.302;10.572;2023-05-10T23:10:27;1.88;;;1.50;;
40489;SDS011;26196;52.302;10.572;2023-05-10T23:14:27;1.85;;;1.52;;
40489;SDS011;26196;52.302;10.572;2023-05-10T23:18:28;2.10;;;1.45;;
40489;SDS011;26196;52.302;10.572;2023-05-10T23:22:28;1.97;;;1.77;;
40489;SDS011;26196;52.302;10.572;2023-05-10T23:26:28;1.58;;;1.48;;
40489;SDS011;26196;52.302;10.572;2023-05-10T23:30:29;2.45;;;1.20;;
40489;SDS011;26196;52.302;10.572;2023-05-10T23:34:30;1.42;;;1.20;;
40489;SDS011;26196;52.302;10.572;2023-05-10T23:38:31;1.65;;;1.50;;
40489;SDS011;26196;52.302;10.572;2023-05-10T23:42:31;1.60;;;1.50;;
40489;SDS011;26196;52.302;10.572;2023-05-10T23:46:31;1.97;;;1.60;;
40489;SDS011;26196;52.302;10.572;2023-05-10T23:50:32;1.97;;;1.47;;
40489;SDS011;26196;52.302;10.572;2023-05-10T23:54:32;2.13;;;1.92;;
40489;SDS011;26196;52.302;10.572;2023-05-10T23:58:33;7.05;;;2.03;;
